createdAt,value
2018-12-20T00:01:15.188Z,31.77
2018-12-20T00:03:42.869Z,28.87
2018-12-20T00:06:10.636Z,29.57
2018-12-20T00:08:38.355Z,30.10
2018-12-20T00:11:06.110Z,30.57
2018-12-20T00:13:33.921Z,30.37
2018-12-20T00:16:01.505Z,30.07
2018-12-20T00:18:29.255Z,27.30
2018-12-20T00:20:56.923Z,28.10
2018-12-20T00:23:24.576Z,30.70
2018-12-20T00:25:52.265Z,29.93
2018-12-20T00:28:19.902Z,33.40
2018-12-20T00:30:47.461Z,32.63
2018-12-20T00:33:15.076Z,29.50
2018-12-20T00:35:42.790Z,32.27
2018-12-20T00:38:10.486Z,31.23
2018-12-20T00:40:38.123Z,31.10
2018-12-20T00:43:05.696Z,32.50
2018-12-20T00:45:33.346Z,29.13
2018-12-20T00:48:01.059Z,29.57
2018-12-20T00:50:28.634Z,30.97
2018-12-20T00:52:56.310Z,32.60
2018-12-20T00:55:23.956Z,29.43
2018-12-20T00:57:51.733Z,31.33
2018-12-20T01:00:19.874Z,28.77
2018-12-20T01:02:55.049Z,31.60
2018-12-20T01:05:17.147Z,30.97
2018-12-20T01:07:44.773Z,34.87
2018-12-20T01:10:12.448Z,37.53
2018-12-20T01:12:40.060Z,34.83
2018-12-20T01:15:07.877Z,33.37
2018-12-20T01:17:38.479Z,32.30
2018-12-20T01:20:08.078Z,31.53
2018-12-20T01:22:35.858Z,31.00
2018-12-20T01:25:04.249Z,32.33
2018-12-20T01:27:31.865Z,36.50
2018-12-20T01:29:59.616Z,37.00
2018-12-20T01:32:27.357Z,37.63
2018-12-20T01:34:54.973Z,36.47
2018-12-20T01:37:22.780Z,32.43
2018-12-20T01:39:50.633Z,33.87
2018-12-20T01:42:18.230Z,35.90
2018-12-20T01:44:53.309Z,33.93
2018-12-20T01:47:15.573Z,32.97
2018-12-20T01:49:43.419Z,37.00
2018-12-20T01:52:11.036Z,36.27
2018-12-20T01:54:38.663Z,35.97
2018-12-20T01:57:06.482Z,37.20
2018-12-20T01:59:34.139Z,33.97
2018-12-20T02:02:01.868Z,34.70
2018-12-20T02:04:29.638Z,36.37
2018-12-20T02:06:57.361Z,33.57
2018-12-20T02:09:25.127Z,37.13
2018-12-20T02:11:52.761Z,34.73
2018-12-20T02:14:20.355Z,38.10
2018-12-20T02:16:47.926Z,34.87
2018-12-20T02:19:15.573Z,34.20
2018-12-20T02:21:44.308Z,36.97
2018-12-20T02:24:12.313Z,34.77
2018-12-20T02:26:40.739Z,36.57
2018-12-20T02:29:08.595Z,32.97
2018-12-20T02:31:36.401Z,36.03
2018-12-20T02:34:03.991Z,35.87
2018-12-20T02:36:31.748Z,33.40
2018-12-20T02:38:59.373Z,41.47
2018-12-20T02:41:27.308Z,38.83
2018-12-20T02:43:56.669Z,36.93
2018-12-20T02:46:24.684Z,38.10
2018-12-20T02:48:53.377Z,36.93
2018-12-20T02:51:20.992Z,34.07
2018-12-20T02:53:48.644Z,42.00
2018-12-20T02:56:16.258Z,35.87
2018-12-20T02:58:43.962Z,38.50
2018-12-20T03:01:11.780Z,39.13
2018-12-20T03:03:39.742Z,36.57
2018-12-20T03:06:07.673Z,39.10
2018-12-20T03:08:35.575Z,39.33
2018-12-20T03:11:03.560Z,38.47
2018-12-20T03:13:31.615Z,35.83
2018-12-20T03:15:59.373Z,37.03
2018-12-20T03:18:27.187Z,40.17
2018-12-20T03:20:55.081Z,40.33
2018-12-20T03:23:22.976Z,38.67
2018-12-20T03:25:50.825Z,37.43
2018-12-20T03:28:18.690Z,37.60
2018-12-20T03:30:46.351Z,43.47
2018-12-20T03:33:14.550Z,38.07
2018-12-20T03:35:42.270Z,44.33
2018-12-20T03:38:09.830Z,40.00
2018-12-20T03:40:37.474Z,37.70
2018-12-20T03:43:05.037Z,40.87
2018-12-20T03:45:32.627Z,39.93
2018-12-20T03:48:00.272Z,39.60
2018-12-20T03:50:28.175Z,37.20
2018-12-20T03:52:55.882Z,40.30
2018-12-20T03:55:23.444Z,41.90
2018-12-20T03:57:51.097Z,38.00
2018-12-20T04:00:18.769Z,38.93
2018-12-20T04:02:46.510Z,39.30
2018-12-20T04:05:14.353Z,40.20
2018-12-20T04:07:42.048Z,42.50
2018-12-20T04:10:09.683Z,42.07
2018-12-20T04:12:37.422Z,39.70
2018-12-20T04:15:05.322Z,40.60
2018-12-20T04:17:33.043Z,40.20
2018-12-20T04:20:00.696Z,43.43
2018-12-20T04:22:28.399Z,40.17
2018-12-20T04:24:56.252Z,41.50
2018-12-20T04:27:24.133Z,37.90
2018-12-20T04:29:51.971Z,39.53
2018-12-20T04:32:19.712Z,39.10
2018-12-20T04:34:47.551Z,43.63
2018-12-20T04:37:15.508Z,39.47
2018-12-20T04:39:43.456Z,40.87
2018-12-20T04:42:11.156Z,43.43
2018-12-20T04:44:38.734Z,42.70
2018-12-20T04:47:06.675Z,46.77
2018-12-20T04:49:34.456Z,42.77
2018-12-20T04:52:02.285Z,51.27
2018-12-20T04:54:30.081Z,43.33
2018-12-20T04:56:57.862Z,47.17
2018-12-20T04:59:25.478Z,41.03
2018-12-20T05:01:53.194Z,42.13
2018-12-20T05:04:21.454Z,45.13
2018-12-20T05:06:49.036Z,39.00
2018-12-20T05:09:16.666Z,42.53
2018-12-20T05:11:45.238Z,43.10
2018-12-20T05:14:12.952Z,40.93
2018-12-20T05:16:40.619Z,41.07
2018-12-20T05:19:08.257Z,44.50
2018-12-20T05:21:35.994Z,40.70
2018-12-20T05:24:03.724Z,47.27
2018-12-20T05:26:31.285Z,46.53
2018-12-20T05:28:58.907Z,52.63
2018-12-20T05:31:26.546Z,42.97
2018-12-20T05:33:54.496Z,45.50
2018-12-20T05:36:24.234Z,45.53
2018-12-20T05:38:51.790Z,43.83
2018-12-20T05:41:19.367Z,43.13
2018-12-20T05:43:47.377Z,43.27
2018-12-20T05:46:15.075Z,47.00
2018-12-20T05:48:42.733Z,46.27
2018-12-20T05:51:10.285Z,42.87
2018-12-20T05:53:38.085Z,45.23
2018-12-20T05:56:05.769Z,43.27
2018-12-20T05:58:33.670Z,42.37
2018-12-20T06:01:01.469Z,43.47
2018-12-20T06:03:29.123Z,41.90
2018-12-20T06:05:57.270Z,41.63
2018-12-20T06:08:24.938Z,41.57
2018-12-20T06:10:52.524Z,48.60
2018-12-20T06:13:20.138Z,44.10
2018-12-20T06:15:47.826Z,45.63
2018-12-20T06:18:15.431Z,46.67
2018-12-20T06:20:42.993Z,45.80
2018-12-20T06:23:10.574Z,39.13
2018-12-20T06:25:38.138Z,42.77
2018-12-20T06:28:05.730Z,44.80
2018-12-20T06:30:33.289Z,42.93
2018-12-20T06:33:00.868Z,39.87
2018-12-20T06:35:28.437Z,47.23
2018-12-20T06:37:56.026Z,46.43
2018-12-20T06:40:23.595Z,43.73
2018-12-20T06:42:51.208Z,41.77
2018-12-20T06:45:18.791Z,40.77
2018-12-20T06:47:46.433Z,42.80
2018-12-20T06:50:14.096Z,42.70
2018-12-20T06:52:41.662Z,40.30
2018-12-20T06:55:09.323Z,44.70
2018-12-20T06:57:36.872Z,41.43
2018-12-20T07:00:05.898Z,41.23
2018-12-20T07:02:33.505Z,44.83
2018-12-20T07:07:34.856Z,39.93
2018-12-20T07:10:03.327Z,47.67
2018-12-20T07:12:30.948Z,41.73
2018-12-20T07:14:58.539Z,41.50
2018-12-20T07:17:26.116Z,45.60
2018-12-20T07:19:53.759Z,40.47
2018-12-20T07:22:21.666Z,40.77
2018-12-20T07:24:49.434Z,45.00
2018-12-20T07:27:16.986Z,40.53
2018-12-20T07:29:44.546Z,44.63
2018-12-20T07:32:12.115Z,40.33
2018-12-20T07:34:39.677Z,45.33
2018-12-20T07:37:07.254Z,43.87
2018-12-20T07:39:36.866Z,43.70
2018-12-20T07:42:04.480Z,43.97
2018-12-20T07:44:32.066Z,42.50
2018-12-20T07:46:59.650Z,46.53
2018-12-20T07:49:27.243Z,44.87
2018-12-20T07:51:54.794Z,45.47
2018-12-20T07:54:22.375Z,44.60
2018-12-20T07:56:49.932Z,43.40
2018-12-20T07:59:23.504Z,49.57
2018-12-20T08:01:47.098Z,39.67
2018-12-20T08:04:14.722Z,42.87
2018-12-20T08:06:42.360Z,44.43
2018-12-20T08:09:09.938Z,44.43
2018-12-20T08:11:37.528Z,42.03
2018-12-20T08:14:05.125Z,45.33
2018-12-20T08:16:32.713Z,41.30
2018-12-20T08:19:00.393Z,39.03
2018-12-20T08:21:27.974Z,42.93
2018-12-20T08:23:55.574Z,38.03
2018-12-20T08:26:23.169Z,36.70
2018-12-20T08:28:50.776Z,40.77
2018-12-20T08:31:18.314Z,39.77
2018-12-20T08:33:45.855Z,37.73
2018-12-20T08:36:13.450Z,41.83
2018-12-20T08:38:41.047Z,39.00
2018-12-20T08:41:09.153Z,40.57
2018-12-20T08:43:38.728Z,35.93
2018-12-20T08:46:06.357Z,36.53
2018-12-20T08:48:33.919Z,40.10
2018-12-20T08:51:01.531Z,39.20
2018-12-20T08:53:29.075Z,42.97
2018-12-20T08:55:57.140Z,42.97
2018-12-20T08:58:24.686Z,36.93
2018-12-20T09:00:52.283Z,39.67
2018-12-20T09:03:22.462Z,40.63
2018-12-20T09:05:50.075Z,42.17
2018-12-20T09:08:17.690Z,39.53
2018-12-20T09:10:45.301Z,40.77
2018-12-20T09:13:12.887Z,41.77
2018-12-20T09:15:40.480Z,39.00
2018-12-20T09:18:08.468Z,39.63
2018-12-20T09:20:36.064Z,37.80
2018-12-20T09:23:04.138Z,38.80
2018-12-20T09:25:31.703Z,40.37
2018-12-20T09:27:59.256Z,42.50
2018-12-20T09:30:30.641Z,38.20
2018-12-20T09:33:01.381Z,41.67
2018-12-20T09:35:29.353Z,39.07
2018-12-20T09:37:57.025Z,41.00
2018-12-20T09:40:25.366Z,37.37
2018-12-20T09:42:55.871Z,43.10
2018-12-20T09:45:25.744Z,38.43
2018-12-20T09:47:56.225Z,39.10
2018-12-20T09:50:24.697Z,39.27
2018-12-20T09:52:52.251Z,39.07
2018-12-20T09:55:19.874Z,36.37
2018-12-20T09:57:47.422Z,40.27
2018-12-20T10:00:15.888Z,39.50
2018-12-20T10:02:43.480Z,42.70
2018-12-20T10:05:11.283Z,41.13
2018-12-20T10:07:40.320Z,39.17
2018-12-20T10:10:09.278Z,38.43
2018-12-20T10:12:37.291Z,36.87
2018-12-20T10:15:05.998Z,38.17
2018-12-20T10:17:33.690Z,41.07
2018-12-20T10:20:02.281Z,42.13
2018-12-20T10:22:29.866Z,38.57
2018-12-20T10:24:57.433Z,38.17
2018-12-20T10:27:31.370Z,37.07
2018-12-20T10:29:54.646Z,36.50
2018-12-20T10:32:22.349Z,37.47
2018-12-20T10:34:50.464Z,36.43
2018-12-20T10:37:33.330Z,38.07
2018-12-20T10:40:01.816Z,34.63
2018-12-20T10:42:29.409Z,35.63
2018-12-20T10:45:00.751Z,40.67
2018-12-20T10:47:29.734Z,41.33
2018-12-20T10:49:57.445Z,37.37
2018-12-20T10:52:26.749Z,34.87
2018-12-20T10:54:57.685Z,34.97
2018-12-20T10:57:25.291Z,37.80
2018-12-20T10:59:53.528Z,36.03
2018-12-20T11:02:27.853Z,32.43
2018-12-20T11:05:02.359Z,36.87
2018-12-20T11:07:35.620Z,35.40
2018-12-20T11:10:26.240Z,34.60
2018-12-20T11:12:54.549Z,37.20
2018-12-20T11:15:23.046Z,37.77
2018-12-20T11:17:50.818Z,32.53
2018-12-20T11:20:18.431Z,35.90
2018-12-20T11:22:46.008Z,38.13
2018-12-20T11:25:13.616Z,37.00
2018-12-20T11:27:41.272Z,31.60
2018-12-20T11:30:09.226Z,32.70
2018-12-20T11:32:36.825Z,35.80
2018-12-20T11:35:04.969Z,34.43
2018-12-20T11:37:32.580Z,34.37
2018-12-20T11:40:00.178Z,31.47
2018-12-20T11:42:27.747Z,32.80
2018-12-20T11:44:55.346Z,35.03
2018-12-20T11:47:26.961Z,30.67
2018-12-20T11:49:54.623Z,32.67
2018-12-20T11:52:22.249Z,28.97
2018-12-20T11:54:49.839Z,31.40
2018-12-20T11:57:17.431Z,30.53
2018-12-20T11:59:44.993Z,31.10
2018-12-20T12:02:12.569Z,29.50
2018-12-20T12:04:40.226Z,30.93
2018-12-20T12:07:07.794Z,28.00
2018-12-20T12:09:35.378Z,29.47
2018-12-20T12:12:03.244Z,34.43
2018-12-20T12:14:30.962Z,29.83
2018-12-20T12:16:58.529Z,29.07
2018-12-20T12:19:26.973Z,25.67
2018-12-20T12:21:54.534Z,27.20
2018-12-20T12:24:22.111Z,28.43
2018-12-20T12:26:49.677Z,30.03
2018-12-20T12:29:17.274Z,24.97
2018-12-20T12:31:45.062Z,26.90
2018-12-20T12:34:12.742Z,27.53
2018-12-20T12:36:40.331Z,29.37
2018-12-20T12:39:08.356Z,28.83
2018-12-20T12:41:35.937Z,26.90
2018-12-20T12:44:03.858Z,25.60
2018-12-20T12:46:31.415Z,26.03
2018-12-20T12:48:58.996Z,26.77
2018-12-20T12:51:28.178Z,25.73
2018-12-20T12:53:55.770Z,26.33
2018-12-20T12:56:23.359Z,24.23
2018-12-20T12:58:51.015Z,28.87
2018-12-20T13:01:18.647Z,25.57
2018-12-20T13:03:46.290Z,24.50
2018-12-20T13:06:13.865Z,26.37
2018-12-20T13:08:42.079Z,25.67
2018-12-20T13:11:09.638Z,27.53
2018-12-20T13:13:38.101Z,28.57
2018-12-20T13:16:05.777Z,26.60
2018-12-20T13:18:33.342Z,25.50
2018-12-20T13:21:00.972Z,27.00
2018-12-20T13:23:28.844Z,27.83
2018-12-20T13:25:56.519Z,27.97
2018-12-20T13:28:24.157Z,26.90
2018-12-20T13:30:51.771Z,28.13
2018-12-20T13:33:19.378Z,29.03
2018-12-20T13:35:47.012Z,30.27
2018-12-20T13:38:14.565Z,28.27
2018-12-20T13:40:42.248Z,26.77
2018-12-20T13:43:10.358Z,28.53
2018-12-20T13:45:37.942Z,24.93
2018-12-20T13:48:05.507Z,22.90
2018-12-20T13:50:33.094Z,28.00
2018-12-20T13:53:00.713Z,26.47
2018-12-20T13:55:28.338Z,26.63
2018-12-20T13:57:55.903Z,26.73
2018-12-20T14:00:23.607Z,24.83
2018-12-20T14:02:51.203Z,28.30
2018-12-20T14:05:18.843Z,25.43
2018-12-20T14:07:46.454Z,26.23
2018-12-20T14:10:14.137Z,26.77
2018-12-20T14:12:41.728Z,25.30
2018-12-20T14:15:09.396Z,26.13
2018-12-20T14:17:36.969Z,26.00
2018-12-20T14:20:05.671Z,29.00
2018-12-20T14:22:33.308Z,30.70
2018-12-20T14:25:00.976Z,28.60
2018-12-20T14:27:28.678Z,26.23
2018-12-20T14:29:56.579Z,27.50
2018-12-20T14:32:24.180Z,27.40
2018-12-20T14:34:52.149Z,26.83
2018-12-20T14:37:21.595Z,30.77
2018-12-20T14:39:49.895Z,28.77
2018-12-20T14:42:17.532Z,29.17
2018-12-20T14:44:45.112Z,28.77
2018-12-20T14:47:12.699Z,26.67
2018-12-20T14:49:40.280Z,28.07
2018-12-20T14:52:07.876Z,31.87
2018-12-20T14:54:35.453Z,30.27
2018-12-20T14:57:03.137Z,28.47
2018-12-20T14:59:32.406Z,30.80
2018-12-20T15:02:00.220Z,32.13
2018-12-20T15:04:27.827Z,30.53
2018-12-20T15:06:56.328Z,29.13
2018-12-20T15:09:23.921Z,31.27
2018-12-20T15:11:51.546Z,30.53
2018-12-20T15:14:19.099Z,31.87
2018-12-20T15:16:46.702Z,29.13
2018-12-20T15:19:14.339Z,27.27
2018-12-20T15:21:41.981Z,28.57
2018-12-20T15:24:09.585Z,30.20
2018-12-20T15:26:37.186Z,30.50
2018-12-20T15:29:05.335Z,33.00
2018-12-20T15:31:32.996Z,28.47
2018-12-20T15:34:00.564Z,29.40
2018-12-20T15:36:28.247Z,32.67
2018-12-20T15:38:56.053Z,32.13
2018-12-20T15:41:23.727Z,32.17
2018-12-20T15:43:51.362Z,31.90
2018-12-20T15:46:19.003Z,30.23
2018-12-20T15:48:46.592Z,30.93
2018-12-20T15:51:14.366Z,29.93
2018-12-20T15:53:42.845Z,30.40
2018-12-20T15:56:14.297Z,32.07
2018-12-20T15:58:41.961Z,32.70
2018-12-20T16:01:09.527Z,28.17
2018-12-20T16:03:37.133Z,32.23
2018-12-20T16:06:05.234Z,31.77
2018-12-20T16:08:34.833Z,30.67
2018-12-20T16:11:02.404Z,28.67
2018-12-20T16:13:30.939Z,29.60
2018-12-20T16:15:58.500Z,27.07
2018-12-20T16:18:26.079Z,29.47
2018-12-20T16:20:54.465Z,34.80
2018-12-20T16:23:22.071Z,30.43
2018-12-20T16:25:49.649Z,32.63
2018-12-20T16:28:17.231Z,27.30
2018-12-20T16:30:44.786Z,27.37
2018-12-20T16:33:12.409Z,24.40
2018-12-20T16:35:39.997Z,29.67
2018-12-20T16:38:07.655Z,25.90
2018-12-20T16:40:35.216Z,25.30
2018-12-20T16:43:02.870Z,22.63
2018-12-20T16:45:30.508Z,25.17
2018-12-20T16:47:58.142Z,26.63
2018-12-20T16:50:25.702Z,22.20
2018-12-20T16:52:53.300Z,27.57
2018-12-20T16:55:20.887Z,24.87
2018-12-20T16:57:48.498Z,24.33
2018-12-20T17:00:16.075Z,26.77
2018-12-20T17:02:43.759Z,26.03
2018-12-20T17:05:11.347Z,22.27
2018-12-20T17:07:38.943Z,25.60
2018-12-20T17:10:06.552Z,23.67
2018-12-20T17:12:34.285Z,25.23
2018-12-20T17:15:01.873Z,24.63
2018-12-20T17:17:29.498Z,22.87
2018-12-20T17:19:57.131Z,23.30
2018-12-20T17:22:24.752Z,22.50
2018-12-20T17:24:52.352Z,20.97
2018-12-20T17:27:19.915Z,24.27
2018-12-20T17:29:47.622Z,20.83
2018-12-20T17:32:15.197Z,23.30
2018-12-20T17:34:42.842Z,18.57
2018-12-20T17:37:10.483Z,23.13
2018-12-20T17:39:38.066Z,24.27
2018-12-20T17:42:05.632Z,22.70
2018-12-20T17:44:33.278Z,23.53
2018-12-20T17:47:00.983Z,22.03
2018-12-20T17:49:30.583Z,21.27
2018-12-20T17:51:58.236Z,22.90
2018-12-20T17:54:25.835Z,21.83
2018-12-20T17:56:53.403Z,20.53
2018-12-20T17:59:21.007Z,22.73
2018-12-20T18:01:48.576Z,23.27
2018-12-20T18:04:16.991Z,29.20
2018-12-20T18:06:44.717Z,37.20
2018-12-20T18:09:12.380Z,22.13
2018-12-20T18:11:39.968Z,24.53
2018-12-20T18:14:08.458Z,20.27
2018-12-20T18:16:36.079Z,20.30
2018-12-20T18:21:43.436Z,19.00
2018-12-20T18:24:11.108Z,21.00
2018-12-20T18:26:38.760Z,22.00
2018-12-20T18:29:06.416Z,18.10
2018-12-20T18:31:33.973Z,19.43
2018-12-20T18:34:01.696Z,20.63
2018-12-20T18:36:29.310Z,20.00
2018-12-20T18:38:56.900Z,21.37
2018-12-20T18:41:24.501Z,19.73
2018-12-20T18:43:52.084Z,20.97
2018-12-20T18:46:19.754Z,18.87
2018-12-20T18:48:47.411Z,20.67
2018-12-20T18:51:15.037Z,19.90
2018-12-20T18:53:42.685Z,18.90
2018-12-20T18:56:10.296Z,18.47
2018-12-20T18:58:37.955Z,27.30
2018-12-20T19:01:05.599Z,39.93
2018-12-20T19:03:33.166Z,21.83
2018-12-20T19:06:00.952Z,18.90
2018-12-20T19:08:28.613Z,19.63
2018-12-20T19:10:56.324Z,21.53
2018-12-20T19:13:23.947Z,20.80
2018-12-20T19:15:51.595Z,20.67
2018-12-20T19:18:19.314Z,17.87
2018-12-20T19:20:46.975Z,21.50
2018-12-20T19:23:14.610Z,20.07
2018-12-20T19:25:42.216Z,16.63
2018-12-20T19:28:09.861Z,22.27
2018-12-20T19:30:37.470Z,17.37
2018-12-20T19:33:05.035Z,18.40
2018-12-20T19:35:32.644Z,14.97
2018-12-20T19:38:00.291Z,18.40
2018-12-20T19:40:27.927Z,16.67
2018-12-20T19:42:55.584Z,16.53
2018-12-20T19:45:23.240Z,17.17
2018-12-20T19:47:51.990Z,17.87
2018-12-20T19:50:21.740Z,16.90
2018-12-20T19:52:49.318Z,15.40
2018-12-20T19:55:17.211Z,18.67
2018-12-20T19:57:44.843Z,20.87
2018-12-20T20:00:13.034Z,18.30
2018-12-20T20:02:40.667Z,13.93
2018-12-20T20:05:08.348Z,14.83
2018-12-20T20:07:36.099Z,15.10
2018-12-20T20:10:06.511Z,15.30
2018-12-20T20:12:34.133Z,13.90
2018-12-20T20:15:02.142Z,17.63
2018-12-20T20:17:29.739Z,15.63
2018-12-20T20:19:59.786Z,16.90
2018-12-20T20:22:26.965Z,19.63
2018-12-20T20:24:54.767Z,14.33
2018-12-20T20:27:22.368Z,15.07
2018-12-20T20:29:49.965Z,14.97
2018-12-20T20:32:17.597Z,17.83
2018-12-20T20:34:45.184Z,15.68
2018-12-20T20:37:12.787Z,13.87
2018-12-20T20:39:40.420Z,17.03
2018-12-20T20:42:08.119Z,14.27
2018-12-20T20:44:35.695Z,12.00
2018-12-20T20:47:03.319Z,11.90
2018-12-20T20:49:31.075Z,13.47
2018-12-20T20:51:58.663Z,12.93
2018-12-20T20:54:26.332Z,13.67
2018-12-20T20:56:54.078Z,15.43
2018-12-20T20:59:24.517Z,13.10
2018-12-20T21:01:52.161Z,13.40
2018-12-20T21:04:19.741Z,17.17
2018-12-20T21:06:47.393Z,11.57
2018-12-20T21:09:16.016Z,19.10
2018-12-20T21:11:44.840Z,13.70
2018-12-20T21:14:12.604Z,14.20
2018-12-20T21:16:40.256Z,11.00
2018-12-20T21:19:07.858Z,12.73
2018-12-20T21:21:36.643Z,11.93
2018-12-20T21:24:04.239Z,12.30
2018-12-20T21:26:31.859Z,12.80
2018-12-20T21:28:59.608Z,12.70
2018-12-20T21:31:27.770Z,13.90
2018-12-20T21:33:55.399Z,16.17
2018-12-20T21:36:22.961Z,12.30
2018-12-20T21:38:50.635Z,13.30
2018-12-20T21:41:18.438Z,12.37
2018-12-20T21:43:46.137Z,10.13
2018-12-20T21:46:14.738Z,11.90
2018-12-20T21:48:42.883Z,11.63
2018-12-20T21:51:10.967Z,12.13
2018-12-20T21:53:38.832Z,11.40
2018-12-20T21:56:06.375Z,9.90
2018-12-20T21:58:36.047Z,10.10
2018-12-20T22:01:05.239Z,13.60
2018-12-20T22:03:32.887Z,10.70
2018-12-20T22:06:00.512Z,10.80
2018-12-20T22:08:28.144Z,10.43
2018-12-20T22:10:55.697Z,8.73
2018-12-20T22:13:23.290Z,8.77
2018-12-20T22:15:50.950Z,11.20
2018-12-20T22:18:18.707Z,9.67
2018-12-20T22:20:47.388Z,9.30
2018-12-20T22:23:15.497Z,12.27
2018-12-20T22:25:43.099Z,9.87
2018-12-20T22:28:10.658Z,8.13
2018-12-20T22:30:39.581Z,12.43
2018-12-20T22:33:07.967Z,8.80
2018-12-20T22:35:35.568Z,9.07
2018-12-20T22:38:03.137Z,15.77
2018-12-20T22:40:30.729Z,11.37
2018-12-20T22:42:58.475Z,8.30
2018-12-20T22:45:26.912Z,8.87
2018-12-20T22:47:54.499Z,10.67
2018-12-20T22:50:22.134Z,7.67
2018-12-20T22:52:49.785Z,8.33
2018-12-20T22:55:18.207Z,7.07
2018-12-20T22:57:46.951Z,8.07
2018-12-20T23:00:14.805Z,7.53
2018-12-20T23:02:42.421Z,8.70
2018-12-20T23:05:10.092Z,7.43
2018-12-20T23:07:37.643Z,7.77
2018-12-20T23:10:06.861Z,6.83
2018-12-20T23:12:34.500Z,8.77
2018-12-20T23:15:02.314Z,7.20
2018-12-20T23:17:29.885Z,7.50
2018-12-20T23:19:57.539Z,8.10
2018-12-20T23:22:25.140Z,7.70
2018-12-20T23:24:52.779Z,6.47
2018-12-20T23:27:20.466Z,6.17
2018-12-20T23:29:48.045Z,6.80
2018-12-20T23:32:17.208Z,5.87
2018-12-20T23:34:49.012Z,5.90
2018-12-20T23:37:17.762Z,6.00
2018-12-20T23:39:45.362Z,6.93
2018-12-20T23:42:13.015Z,6.50
2018-12-20T23:44:40.659Z,6.97
2018-12-20T23:47:08.398Z,5.70
2018-12-20T23:49:36.017Z,15.13
2018-12-20T23:52:03.814Z,5.67
2018-12-20T23:54:31.386Z,5.80
2018-12-20T23:56:59.279Z,5.33
2018-12-20T23:59:26.952Z,7.10
